METAR Data
IDs: Format: Raw Decoded Include TAF

Data at: 1219 UTC 16 Feb 2019

KSET 161154Z AUTO 03006KT 10SM CLR M08/M12 A3008 RMK AO2 SLP193 T10831117 11061 21089 56004
No TAF found for KSET

KSTL 161151Z 03007KT 10SM FEW085 M08/M12 A3007 RMK AO2 SLP200 4/001 60000 70013 T10781117 11061 21078 56002

KSTL 161130Z 1612/1718 01005KT P6SM SKC
  FM170000 09006KT P6SM BKN250
  FM170500 11007KT 4SM -SN OVC025
  FM170800 10005KT 2SM -FZDZ BR OVC009
  FM171300 10005KT 5SM BR BKN009